KPKB

Mid-Ohio Valley Regional Airport

Parkersburg, West Virginia, USA
METAR KPKB 210453Z AUTO 17007KT 10SM SCT110 24/19 A2999 RMK AO2 SLP145 T02390194 403000167 TSNO
Observed Flight Rules
Aug-21 @ 04:53 UTC (9 hours ago) Visual Flight Rules
Wind Visibility Clouds
170° at 7 knots 10 miles
  • Scattered at 11,000' AGL
Temperatures Readings
Current 24°C / 75°F
Dewpoint 19°C / 66°F
Humidity 74%
Altimeter 29.99" Hg
Pressure 1014.5 hPa
Elevation 262
METAR KPKB 210453Z AUTO 17007KT 10SM SCT110 24/19 A2999 RMK AO2 SLP145 T02390194 403000167 TSNO
Observed Flight Rules
Aug-21 @ 04:53 UTC
(9 hours ago)
VFR
Wind Visibility
170° at 7 knots 10 miles
Clouds
  • Scattered at 11,000' AGL
Temperature Dewpoint
24°C / 75°F 19°C / 66°F
Humidity Altimeter Pressure
74% 29.99" Hg 1014.5 hPa